Time;durP1;ratioP1;P1;durP2;ratioP2;P2;SDS_P1;SDS_P2;PMS_P1;PMS_P2;Temp;Humidity;BMP_temperature;BMP_pressure;BME280_temperature;BME280_humidity;BME280_pressure;Samples;Min_cycle;Max_cycle;Signal;HPM_P1;HPM_P2
2023/10/13 00:02:04;;;;;;;209.00;37.47;;;14.60;99.90;;;;;;4957403;28;20061;-73
2023/10/13 00:04:33;;;;;;;183.63;35.55;;;14.60;99.90;;;;;;4942068;28;20112;-73
2023/10/13 00:07:02;;;;;;;149.68;33.30;;;14.60;99.90;;;;;;4974335;28;20782;-72
2023/10/13 00:09:37;;;;;;;135.52;33.00;;;14.60;99.90;;;;;;4959783;28;20518;-73
2023/10/13 00:12:10;;;;;;;154.93;32.90;;;14.70;99.90;;;;;;4958420;28;20034;-72
2023/10/13 00:14:37;;;;;;;118.57;32.50;;;14.60;99.90;;;;;;4958884;28;20042;-71
2023/10/13 00:17:04;;;;;;;161.02;32.85;;;14.60;99.90;;;;;;4957424;28;20065;-72
2023/10/13 00:19:37;;;;;;;129.63;34.25;;;14.80;99.90;;;;;;4950542;28;20054;-73
2023/10/13 00:22:10;;;;;;;151.25;34.47;;;14.90;99.90;;;;;;4948992;28;20043;-73
2023/10/13 00:24:45;;;;;;;119.72;31.80;;;14.90;99.90;;;;;;4953522;28;20149;-75
2023/10/13 00:27:29;;;;;;;170.50;34.42;;;14.90;99.90;;;;;;4952399;28;20046;-72
2023/10/13 00:30:22;;;;;;;149.25;33.38;;;14.90;99.90;;;;;;4968692;28;20034;-74
2023/10/13 00:32:59;;;;;;;120.70;32.78;;;14.90;99.90;;;;;;4958801;28;20125;-73
2023/10/13 00:35:29;;;;;;;143.98;34.08;;;15.00;99.90;;;;;;4957798;28;20104;-72
2023/10/13 00:38:19;;;;;;;149.82;33.83;;;15.20;99.90;;;;;;4979000;28;20053;-72
2023/10/13 00:40:51;;;;;;;219.82;37.42;;;15.20;99.90;;;;;;4956019;28;20058;-76
2023/10/13 00:46:00;;;;;;;131.57;33.88;;;15.30;99.90;;;;;;4973131;28;20065;-72
2023/10/13 00:48:33;;;;;;;202.25;38.15;;;15.20;99.90;;;;;;4953781;28;20038;-72
2023/10/13 00:51:03;;;;;;;167.23;35.75;;;15.30;99.90;;;;;;4955731;28;20173;-71
2023/10/13 00:53:30;;;;;;;;;;;15.30;99.90;;;;;;4976194;28;20057;-73
2023/10/13 00:55:55;;;;;;;121.55;32.53;;;15.50;99.90;;;;;;4959125;28;19917;-72
2023/10/13 00:58:22;;;;;;;155.98;33.97;;;15.40;99.90;;;;;;4972447;28;20334;-72
2023/10/13 01:00:56;;;;;;;109.00;31.75;;;15.50;99.90;;;;;;4955852;28;20113;-72
2023/10/13 01:03:26;;;;;;;127.53;31.75;;;15.40;99.90;;;;;;4960347;28;20042;-72
2023/10/13 01:05:54;;;;;;;136.00;31.73;;;15.60;99.90;;;;;;4955629;28;20042;-73
2023/10/13 01:08:37;;;;;;;159.70;34.35;;;15.60;99.90;;;;;;4962032;28;20054;-73
2023/10/13 01:11:06;;;;;;;112.55;29.75;;;15.50;99.90;;;;;;4945939;28;20121;-72
2023/10/13 01:13:36;;;;;;;123.28;31.17;;;15.60;99.90;;;;;;4966312;28;20026;-72
2023/10/13 01:16:02;;;;;;;125.85;31.83;;;15.40;99.90;;;;;;4964006;28;20153;-72
2023/10/13 01:18:28;;;;;;;143.65;32.25;;;15.50;99.90;;;;;;4959704;28;20066;-72
2023/10/13 01:20:58;;;;;;;127.18;31.33;;;15.50;99.90;;;;;;4959347;28;20142;-71
2023/10/13 01:23:25;;;;;;;;;;;15.60;99.90;;;;;;4958950;28;20065;-74
2023/10/13 01:25:54;;;;;;;112.05;27.63;;;15.60;99.90;;;;;;4960455;28;20085;-73
2023/10/13 01:28:21;;;;;;;118.30;28.70;;;15.50;99.90;;;;;;4958532;28;20042;-71
2023/10/13 01:30:50;;;;;;;118.55;27.80;;;15.70;99.90;;;;;;4948031;28;20073;-72
2023/10/13 01:33:17;;;;;;;109.55;26.90;;;15.50;99.90;;;;;;4960143;28;20040;-71
2023/10/13 01:35:47;;;;;;;124.80;29.27;;;15.60;99.90;;;;;;4944231;28;20049;-72
2023/10/13 01:38:13;;;;;;;127.22;29.00;;;15.60;99.90;;;;;;4958009;28;20042;-72
2023/10/13 01:40:39;;;;;;;106.68;29.80;;;15.60;99.90;;;;;;4955396;28;20422;-74
2023/10/13 01:43:10;;;;;;;110.55;28.90;;;15.70;99.90;;;;;;4956621;28;20034;-75
2023/10/13 01:45:39;;;;;;;106.97;29.20;;;15.80;99.90;;;;;;4956159;28;20701;-73
2023/10/13 01:48:04;;;;;;;124.65;30.35;;;15.60;99.90;;;;;;4972923;28;20149;-72
2023/10/13 01:50:30;;;;;;;124.35;30.33;;;15.60;99.90;;;;;;4951348;28;20467;-71
2023/10/13 01:53:11;;;;;;;127.05;29.90;;;15.60;99.90;;;;;;4976219;28;20124;-72
2023/10/13 01:55:44;;;;;;;142.23;30.38;;;15.80;99.90;;;;;;4952494;28;20053;-71
2023/10/13 01:58:17;;;;;;;123.88;30.05;;;15.80;99.90;;;;;;4956577;28;20138;-71
2023/10/13 02:00:44;;;;;;;137.95;32.33;;;15.80;99.90;;;;;;4970715;28;20054;-72
2023/10/13 02:03:16;;;;;;;110.07;30.25;;;15.70;99.90;;;;;;4975026;28;20125;-72
2023/10/13 02:05:47;;;;;;;142.68;31.50;;;15.80;99.90;;;;;;4957643;28;20074;-72
2023/10/13 02:08:18;;;;;;;;;;;15.80;99.90;;;;;;4976360;28;20070;-73
2023/10/13 02:10:47;;;;;;;118.55;31.33;;;15.80;99.90;;;;;;4954225;28;20039;-74
2023/10/13 02:13:17;;;;;;;153.60;32.58;;;15.70;99.90;;;;;;4960789;28;20061;-72
2023/10/13 02:15:47;;;;;;;;;;;15.80;99.90;;;;;;4958281;28;20783;-72
2023/10/13 02:18:20;;;;;;;125.13;30.85;;;15.60;99.90;;;;;;4973484;28;19984;-71
2023/10/13 02:20:54;;;;;;;143.85;32.97;;;15.80;99.90;;;;;;4943806;28;20153;-72
2023/10/13 02:23:21;;;;;;;129.73;30.17;;;15.70;99.90;;;;;;4959989;28;20065;-72
2023/10/13 02:25:47;;;;;;;160.82;33.20;;;15.80;99.90;;;;;;4963322;28;20042;-72
2023/10/13 02:28:21;;;;;;;131.82;31.20;;;15.80;99.90;;;;;;4956336;28;20449;-72
2023/10/13 02:30:50;;;;;;;107.32;26.50;;;15.70;99.90;;;;;;4959497;28;20117;-71
2023/10/13 02:33:21;;;;;;;132.35;29.83;;;15.70;99.90;;;;;;4960150;28;20038;-72
2023/10/13 02:35:53;;;;;;;106.32;30.52;;;15.70;99.90;;;;;;4939313;28;20094;-73
2023/10/13 02:38:27;;;;;;;113.85;29.70;;;15.80;99.90;;;;;;4959613;28;20181;-72
2023/10/13 02:40:54;;;;;;;125.47;30.90;;;15.80;99.90;;;;;;4974223;28;20081;-73
2023/10/13 02:43:21;;;;;;;103.55;30.23;;;15.90;99.90;;;;;;4974038;28;20096;-75
2023/10/13 02:46:00;;;;;;;145.48;29.95;;;15.70;99.90;;;;;;4956362;28;20042;-70
2023/10/13 02:48:30;;;;;;;99.22;30.48;;;15.80;99.90;;;;;;4960515;28;20030;-73
2023/10/13 02:51:06;;;;;;;109.32;29.63;;;15.80;99.90;;;;;;4950932;28;20035;-70
2023/10/13 02:53:32;;;;;;;104.40;28.88;;;15.80;99.90;;;;;;4957824;28;20061;-71
2023/10/13 02:56:04;;;;;;;124.22;28.85;;;15.90;99.90;;;;;;4952738;28;20050;-70
2023/10/13 02:58:38;;;;;;;102.32;27.85;;;15.80;99.90;;;;;;4946685;28;20041;-71
2023/10/13 03:01:16;;;;;;;124.55;29.35;;;15.70;99.90;;;;;;4957212;28;20042;-70
2023/10/13 03:03:54;;;;;;;118.97;29.27;;;15.80;99.90;;;;;;4957564;28;20124;-71
2023/10/13 03:06:23;;;;;;;110.45;29.02;;;15.80;99.90;;;;;;4954467;28;20141;-73
2023/10/13 03:08:49;;;;;;;120.57;29.40;;;15.80;99.90;;;;;;4958554;28;20593;-70
2023/10/13 03:11:21;;;;;;;118.60;27.80;;;15.90;99.90;;;;;;4956990;28;20030;-69
2023/10/13 03:13:47;;;;;;;120.63;28.88;;;15.70;99.90;;;;;;4956880;28;20049;-70
2023/10/13 03:16:17;;;;;;;119.38;28.45;;;15.70;99.90;;;;;;4970007;28;20071;-69
2023/10/13 03:18:53;;;;;;;110.03;26.50;;;15.70;99.90;;;;;;4959446;28;20046;-70
2023/10/13 03:21:29;;;;;;;97.82;25.38;;;15.70;99.90;;;;;;4957834;28;20494;-72
2023/10/13 03:24:06;;;;;;;93.95;26.10;;;15.70;99.90;;;;;;4971953;28;20111;-71
2023/10/13 03:26:36;;;;;;;111.25;27.10;;;15.70;99.90;;;;;;4971983;28;20117;-71
2023/10/13 03:29:08;;;;;;;127.78;27.58;;;15.70;99.90;;;;;;4970803;28;20081;-73
2023/10/13 03:31:37;;;;;;;116.95;25.98;;;15.70;99.90;;;;;;4941888;28;20378;-74
2023/10/13 03:34:12;;;;;;;101.65;25.02;;;15.80;99.90;;;;;;4971901;28;20047;-70
2023/10/13 03:39:27;;;;;;;98.80;24.45;;;15.70;99.90;;;;;;4978002;28;20062;-73
2023/10/13 03:41:53;;;;;;;107.85;24.83;;;15.70;99.90;;;;;;4958739;28;20030;-72
2023/10/13 03:44:20;;;;;;;119.20;26.48;;;15.70;99.90;;;;;;4953357;28;20077;-72
2023/10/13 03:46:47;;;;;;;98.50;24.45;;;15.80;99.90;;;;;;4953254;28;20098;-72
2023/10/13 03:49:20;;;;;;;86.13;23.20;;;15.90;99.90;;;;;;4972555;28;20038;-74
2023/10/13 03:51:47;;;;;;;92.50;22.80;;;15.80;99.90;;;;;;4956206;28;20063;-70
2023/10/13 03:54:16;;;;;;;92.25;23.50;;;15.70;99.90;;;;;;4957952;28;20066;-71
2023/10/13 03:56:44;;;;;;;100.30;22.83;;;15.70;99.90;;;;;;4971419;28;20459;-73
2023/10/13 03:59:18;;;;;;;88.60;21.30;;;15.80;99.90;;;;;;4956225;28;20050;-74
2023/10/13 04:02:00;;;;;;;79.15;21.92;;;15.70;99.90;;;;;;4971192;28;20618;-74
2023/10/13 04:07:39;;;;;;;88.20;22.55;;;15.80;99.90;;;;;;4947408;28;20057;-71
2023/10/13 04:21:39;;;;;;;85.85;22.75;;;15.70;99.90;;;;;;4969412;28;20050;-71
2023/10/13 04:32:30;;;;;;;82.25;22.48;;;15.50;99.90;;;;;;4976887;28;20081;-70
2023/10/13 04:35:17;;;;;;;83.88;23.42;;;15.90;99.90;;;;;;4957061;28;20175;-72
2023/10/13 04:37:50;;;;;;;78.60;23.60;;;15.90;99.90;;;;;;4946925;28;20638;-72
2023/10/13 04:40:19;;;;;;;85.88;22.98;;;15.80;99.90;;;;;;4970302;28;20085;-74
2023/10/13 04:42:56;;;;;;;88.13;23.25;;;15.80;99.90;;;;;;4957210;28;20068;-71
2023/10/13 04:48:17;;;;;;;78.13;22.17;;;16.10;99.90;;;;;;4963649;28;20387;-72
2023/10/13 04:50:50;;;;;;;77.60;21.05;;;16.00;99.90;;;;;;4953590;28;20119;-74
2023/10/13 04:54:25;;;;;;;81.85;21.30;;;15.70;99.90;;;;;;4970499;28;20205;-73
2023/10/13 05:02:18;;;;;;;72.28;20.83;;;15.70;99.90;;;;;;4959885;28;20447;-72
2023/10/13 05:04:38;;;;;;;80.10;21.38;;;15.50;99.90;;;;;;4961806;28;20046;-68
2023/10/13 05:51:43;;;;;;;39.20;13.43;;;15.60;99.90;;;;;;4957045;28;20370;-67
2023/10/13 06:29:33;;;;;;;30.05;9.90;;;15.40;99.90;;;;;;4981452;28;20681;-68
2023/10/13 06:32:01;;;;;;;22.40;9.15;;;15.20;99.90;;;;;;4961647;28;20030;-71
2023/10/13 06:34:44;;;;;;;26.17;8.98;;;16.00;99.90;;;;;;4965829;28;20066;-68
2023/10/13 06:37:24;;;;;;;20.30;8.52;;;15.90;99.90;;;;;;4967865;28;20069;-69
2023/10/13 06:39:50;;;;;;;22.27;8.80;;;15.30;99.90;;;;;;4952663;28;20038;-67
2023/10/13 06:42:16;;;;;;;21.23;8.90;;;15.90;99.90;;;;;;4975363;28;20093;-69
2023/10/13 06:44:46;;;;;;;23.05;8.80;;;16.10;99.90;;;;;;4952779;28;20168;-70
2023/10/13 06:47:13;;;;;;;30.40;10.23;;;15.90;99.90;;;;;;4951119;28;20046;-67
2023/10/13 06:49:43;;;;;;;21.70;7.88;;;15.30;99.90;;;;;;4976418;28;20031;-69
2023/10/13 06:52:10;;;;;;;15.88;7.28;;;15.80;99.90;;;;;;4983179;28;20503;-70
2023/10/13 06:54:39;;;;;;;21.10;7.28;;;16.20;99.90;;;;;;4969692;28;20042;-70
2023/10/13 06:57:07;;;;;;;17.95;7.30;;;16.20;99.90;;;;;;4964482;28;20058;-68
2023/10/13 06:59:36;;;;;;;17.83;7.30;;;15.30;99.90;;;;;;4966809;28;20042;-67
2023/10/13 07:02:06;;;;;;;18.10;7.55;;;15.90;99.90;;;;;;4966495;28;20433;-68
2023/10/13 07:04:32;;;;;;;17.45;7.20;;;15.80;99.90;;;;;;4962389;28;20494;-69
2023/10/13 07:07:00;;;;;;;20.05;7.18;;;16.40;99.90;;;;;;4983094;28;20046;-69
2023/10/13 07:12:03;;;;;;;17.40;7.55;;;16.10;99.90;;;;;;4974127;28;20049;-69
2023/10/13 07:14:32;;;;;;;19.58;6.90;;;15.60;99.90;;;;;;4964040;28;20042;-68
2023/10/13 07:17:04;;;;;;;19.17;7.17;;;15.40;99.90;;;;;;4962413;28;20133;-70
2023/10/13 07:19:31;;;;;;;19.67;7.43;;;16.50;99.90;;;;;;4978651;28;20046;-70
2023/10/13 07:22:19;;;;;;;19.60;7.22;;;16.20;99.90;;;;;;4961757;28;20054;-70
2023/10/13 07:24:48;;;;;;;18.92;7.07;;;16.00;99.90;;;;;;4964918;28;20034;-68
2023/10/13 07:27:24;;;;;;;19.73;7.20;;;15.50;99.90;;;;;;4968689;28;20042;-68
2023/10/13 07:30:14;;;;;;;16.55;6.22;;;15.60;99.90;;;;;;4967805;28;20046;-70
2023/10/13 07:32:46;;;;;;;15.47;7.30;;;15.70;99.90;;;;;;4983789;28;20088;-68
2023/10/13 07:35:15;;;;;;;17.52;6.93;;;16.20;99.90;;;;;;4966137;28;20302;-68
2023/10/13 07:37:41;;;;;;;21.73;7.40;;;15.90;99.90;;;;;;4967223;28;20084;-67
2023/10/13 07:40:21;;;;;;;18.30;7.03;;;15.70;99.90;;;;;;4969699;28;20370;-69
2023/10/13 07:42:47;;;;;;;12.80;6.22;;;16.00;99.90;;;;;;4968990;28;20405;-68
2023/10/13 07:45:13;;;;;;;16.92;6.80;;;16.10;99.90;;;;;;4984476;28;20038;-69
2023/10/13 07:47:39;;;;;;;21.48;6.90;;;15.30;99.90;;;;;;4975040;28;20073;-68
2023/10/13 07:50:06;;;;;;;17.50;6.63;;;15.80;99.90;;;;;;4979118;28;20069;-70
2023/10/13 07:52:40;;;;;;;20.63;7.47;;;16.20;99.90;;;;;;5005416;28;20052;-69
2023/10/13 07:55:19;;;;;;;20.05;7.25;;;16.00;99.90;;;;;;4971742;28;20046;-69
2023/10/13 07:57:54;;;;;;;19.88;7.10;;;15.10;99.90;;;;;;4969909;28;20061;-70
2023/10/13 08:03:09;;;;;;;18.35;7.72;;;15.90;99.90;;;;;;4971932;28;20155;-66
2023/10/13 08:08:39;;;;;;;28.50;8.00;;;16.10;99.90;;;;;;4920695;29;20039;-68
2023/10/13 08:11:34;;;;;;;22.92;7.55;;;15.20;99.90;;;;;;4966969;28;20446;-71
2023/10/13 08:14:18;;;;;;;20.85;7.45;;;15.90;99.90;;;;;;4967917;28;20042;-68
2023/10/13 08:19:15;;;;;;;17.60;7.72;;;16.50;99.90;;;;;;4983685;28;20054;-67
2023/10/13 08:21:48;;;;;;;20.45;7.82;;;15.20;99.90;;;;;;4973484;28;20103;-68
2023/10/13 08:24:15;;;;;;;25.73;8.43;;;15.30;99.90;;;;;;4986437;28;20137;-70
2023/10/13 08:37:19;;;;;;;23.60;9.07;;;16.40;99.90;;;;;;4971630;28;20080;-71
2023/10/13 08:39:58;;;;;;;28.67;10.18;;;15.80;99.90;;;;;;4973903;28;20100;-66
2023/10/13 08:42:52;;;;;;;25.55;9.75;;;16.10;99.90;;;;;;4955356;28;20458;-69
2023/10/13 08:48:12;;;;;;;26.83;9.88;;;16.40;99.90;;;;;;4973828;28;20058;-73
2023/10/13 08:53:52;;;;;;;28.42;11.25;;;16.20;99.90;;;;;;4991679;28;20061;-73
2023/10/13 08:56:31;;;;;;;26.58;9.68;;;16.70;99.90;;;;;;4958514;28;20038;-76
2023/10/13 08:59:05;;;;;;;32.92;10.57;;;15.60;99.90;;;;;;4969659;28;20054;-73
2023/10/13 09:09:34;;;;;;;28.90;11.73;;;15.90;99.90;;;;;;4974253;28;20394;-75
2023/10/13 09:18:12;;;;;;;29.40;11.95;;;17.10;99.90;;;;;;4979378;28;20050;-69
2023/10/13 09:23:27;;;;;;;28.48;12.70;;;16.10;99.90;;;;;;4994760;28;20366;-75
2023/10/13 09:26:08;;;;;;;27.88;12.82;;;16.40;99.90;;;;;;4993117;28;20113;-75
2023/10/13 09:28:36;;;;;;;29.80;12.57;;;16.20;99.90;;;;;;4946199;28;20456;-75
2023/10/13 09:31:02;;;;;;;26.42;12.35;;;17.20;99.90;;;;;;4973431;28;20042;-70
2023/10/13 09:33:32;;;;;;;31.92;12.20;;;17.00;99.90;;;;;;4986174;28;20181;-71
2023/10/13 09:35:59;;;;;;;28.45;11.80;;;17.60;99.90;;;;;;4972466;28;20050;-72
2023/10/13 09:38:29;;;;;;;29.17;12.55;;;16.20;99.90;;;;;;4956593;28;20050;-70
2023/10/13 09:40:58;;;;;;;26.92;12.32;;;16.50;99.90;;;;;;4974620;28;20056;-71
2023/10/13 09:43:26;;;;;;;23.48;10.25;;;16.50;99.90;;;;;;4963818;28;20042;-77
2023/10/13 09:46:02;;;;;;;22.88;11.13;;;16.60;99.90;;;;;;4996686;28;20169;-73
2023/10/13 09:48:41;;;;;;;23.05;10.82;;;16.50;99.90;;;;;;4975736;28;20045;-75
2023/10/13 09:51:12;;;;;;;21.73;10.13;;;16.40;99.90;;;;;;4962816;28;20070;-73
2023/10/13 09:53:41;;;;;;;24.63;10.68;;;16.50;99.90;;;;;;4964576;28;20121;-76
2023/10/13 09:56:19;;;;;;;24.80;11.18;;;17.60;99.90;;;;;;4971732;28;20088;-68
2023/10/13 09:59:00;;;;;;;21.10;10.45;;;17.90;99.90;;;;;;4981056;28;20058;-69
2023/10/13 10:01:32;;;;;;;21.67;10.45;;;17.10;99.90;;;;;;4973182;28;20038;-74
2023/10/13 10:04:16;;;;;;;22.00;11.00;;;17.30;99.90;;;;;;4972409;28;20118;-73
2023/10/13 10:06:56;;;;;;;18.85;9.20;;;16.70;99.90;;;;;;4969738;28;20074;-78
2023/10/13 10:09:34;;;;;;;20.30;9.35;;;17.70;99.90;;;;;;4966043;28;20104;-74
2023/10/13 10:12:28;;;;;;;19.45;9.27;;;16.90;99.90;;;;;;4963447;28;20122;-72
2023/10/13 10:15:28;;;;;;;18.92;8.73;;;18.00;99.90;;;;;;4964627;28;20417;-73
2023/10/13 10:17:54;;;;;;;17.17;8.35;;;17.10;99.90;;;;;;4981490;28;20053;-71
2023/10/13 10:20:39;;;;;;;20.35;8.82;;;17.90;99.90;;;;;;4971081;28;20042;-69
2023/10/13 10:23:09;;;;;;;16.65;8.93;;;17.90;99.90;;;;;;4986398;28;20038;-70
2023/10/13 10:25:37;;;;;;;23.00;8.95;;;18.10;99.90;;;;;;4960870;28;20394;-70
2023/10/13 10:28:07;;;;;;;21.70;9.20;;;17.00;99.90;;;;;;4971808;28;20136;-74
2023/10/13 10:30:41;;;;;;;16.20;8.55;;;16.90;99.90;;;;;;4991180;28;20046;-71
2023/10/13 10:33:18;;;;;;;20.13;8.15;;;17.90;99.90;;;;;;4986934;28;20451;-74
2023/10/13 10:35:46;;;;;;;17.63;7.60;;;17.50;99.90;;;;;;4968382;28;20057;-70
2023/10/13 10:38:23;;;;;;;17.02;8.55;;;17.40;99.90;;;;;;4955099;28;20592;-74
2023/10/13 10:40:57;;;;;;;18.77;7.53;;;18.20;99.90;;;;;;4968186;28;20069;-73
2023/10/13 10:43:50;;;;;;;18.90;7.85;;;17.50;99.90;;;;;;4974618;28;20042;-71
2023/10/13 10:46:27;;;;;;;16.58;8.05;;;18.40;99.90;;;;;;4965929;28;20054;-71
2023/10/13 10:49:00;;;;;;;17.75;7.65;;;17.70;99.90;;;;;;4964032;28;20482;-72
2023/10/13 10:51:31;;;;;;;17.20;6.90;;;18.10;99.90;;;;;;4968471;28;20043;-74
2023/10/13 10:53:57;;;;;;;;;;;18.00;99.90;;;;;;4987755;28;20084;-72
2023/10/13 10:56:25;;;;;;;15.40;6.75;;;18.40;99.90;;;;;;4984667;28;19921;-69
2023/10/13 10:58:56;;;;;;;18.85;6.28;;;18.00;99.90;;;;;;4970959;28;20050;-69
2023/10/13 11:01:23;;;;;;;15.93;6.15;;;18.20;99.90;;;;;;4970583;28;20048;-70
2023/10/13 11:03:57;;;;;;;14.93;5.68;;;18.20;99.90;;;;;;4968111;28;20560;-71
2023/10/13 11:06:26;;;;;;;16.27;6.22;;;18.20;99.90;;;;;;4983700;28;20082;-70
2023/10/13 11:09:03;;;;;;;12.93;5.13;;;18.20;99.90;;;;;;4979161;28;20062;-72
2023/10/13 11:11:35;;;;;;;19.63;6.78;;;18.10;99.90;;;;;;4974513;28;20303;-72
2023/10/13 11:14:17;;;;;;;18.50;6.22;;;18.00;99.90;;;;;;4978613;28;20038;-71
2023/10/13 11:16:50;;;;;;;14.10;6.13;;;18.00;99.90;;;;;;4977431;28;20088;-73
2023/10/13 11:19:20;;;;;;;15.00;5.70;;;17.90;99.90;;;;;;4962724;28;20080;-74
2023/10/13 11:21:47;;;;;;;20.50;6.70;;;17.90;99.90;;;;;;4966812;28;20051;-74
2023/10/13 11:24:13;;;;;;;15.63;5.63;;;17.90;99.90;;;;;;4969507;28;20056;-73
2023/10/13 11:29:33;;;;;;;16.13;6.28;;;17.90;99.90;;;;;;4956623;28;20054;-74
2023/10/13 11:32:00;;;;;;;14.13;5.63;;;18.00;99.90;;;;;;4973021;28;20053;-72
2023/10/13 11:34:30;;;;;;;18.05;6.97;;;18.00;99.90;;;;;;4970748;28;20137;-74
2023/10/13 11:36:55;;;;;;;19.27;7.00;;;18.00;99.90;;;;;;4971764;28;20038;-76
2023/10/13 11:39:30;;;;;;;17.30;6.68;;;18.10;99.90;;;;;;4971457;28;20462;-74
2023/10/13 11:41:55;;;;;;;14.32;6.15;;;18.10;99.90;;;;;;4971078;28;20096;-74
2023/10/13 11:44:30;;;;;;;16.65;5.85;;;18.10;99.90;;;;;;4967827;28;20141;-74
2023/10/13 11:46:56;;;;;;;15.55;6.20;;;18.20;99.90;;;;;;4967882;28;20046;-73
2023/10/13 11:52:02;;;;;;;20.65;5.80;;;18.00;99.90;;;;;;4987861;28;20389;-74
2023/10/13 11:54:27;;;;;;;11.73;5.32;;;18.00;99.90;;;;;;4970578;28;20129;-75
2023/10/13 11:56:58;;;;;;;17.67;6.28;;;18.20;99.90;;;;;;4973803;28;20153;-76
2023/10/13 11:59:28;;;;;;;14.32;5.97;;;18.20;99.90;;;;;;4954349;28;20046;-74
2023/10/13 12:04:51;;;;;;;13.57;5.93;;;18.30;99.90;;;;;;4968884;28;20042;-78
2023/10/13 12:07:23;;;;;;;17.55;5.72;;;18.20;99.90;;;;;;4984774;28;20049;-77
2023/10/13 12:12:26;;;;;;;15.73;6.15;;;18.20;99.90;;;;;;4963879;28;20065;-75
2023/10/13 12:14:52;;;;;;;;;;;18.30;99.90;;;;;;4970121;28;20042;-74
2023/10/13 12:17:34;;;;;;;16.55;6.50;;;18.30;99.90;;;;;;4969263;28;19941;-78
2023/10/13 12:20:00;;;;;;;17.63;5.88;;;18.20;99.90;;;;;;4969392;28;20072;-77
2023/10/13 12:22:35;;;;;;;13.88;6.63;;;18.20;99.90;;;;;;4971475;28;20383;-74
2023/10/13 12:25:04;;;;;;;12.85;6.32;;;18.10;99.90;;;;;;4971264;28;20057;-76
2023/10/13 12:27:45;;;;;;;16.73;6.20;;;18.10;99.90;;;;;;4976407;28;20479;-77
2023/10/13 12:30:13;;;;;;;15.73;5.68;;;18.00;99.90;;;;;;4976171;28;20530;-70
2023/10/13 12:32:44;;;;;;;14.15;6.03;;;17.90;99.90;;;;;;4956398;28;20654;-74
2023/10/13 12:51:20;;;;;;;21.83;6.65;;;18.00;99.90;;;;;;4965407;28;20039;-74
2023/10/13 12:53:50;;;;;;;16.15;6.57;;;18.00;99.90;;;;;;4973405;28;20493;-71
2023/10/13 12:56:16;;;;;;;18.20;6.75;;;18.00;99.90;;;;;;4989448;28;20158;-70
2023/10/13 12:58:44;;;;;;;14.77;6.03;;;18.10;99.90;;;;;;4985153;28;20156;-74
2023/10/13 13:01:13;;;;;;;18.33;6.30;;;18.10;99.90;;;;;;4953762;28;20088;-78
2023/10/13 13:03:44;;;;;;;15.68;6.35;;;18.10;99.90;;;;;;4974060;28;20430;-75
2023/10/13 13:06:17;;;;;;;14.18;5.65;;;18.20;99.90;;;;;;4980047;28;20150;-73
2023/10/13 13:08:44;;;;;;;19.80;6.10;;;18.30;99.90;;;;;;4969483;28;20049;-73
2023/10/13 13:11:10;;;;;;;14.02;5.90;;;18.30;99.90;;;;;;4989334;28;20531;-72
2023/10/13 13:13:36;;;;;;;10.70;5.50;;;18.40;99.90;;;;;;4974349;28;20046;-73
2023/10/13 13:16:03;;;;;;;16.75;6.75;;;18.30;99.90;;;;;;4986053;28;20043;-69
2023/10/13 13:18:29;;;;;;;13.77;6.97;;;18.10;99.90;;;;;;4968513;28;20064;-72
2023/10/13 13:20:55;;;;;;;19.85;7.28;;;17.80;99.90;;;;;;4968780;28;20133;-74
2023/10/13 13:23:25;;;;;;;12.77;6.07;;;17.80;99.90;;;;;;4968190;28;20053;-72
2023/10/13 13:25:52;;;;;;;19.10;6.55;;;17.70;99.90;;;;;;4984811;28;20177;-79
2023/10/13 13:28:17;;;;;;;14.50;6.68;;;17.70;99.90;;;;;;4969379;28;20118;-75
2023/10/13 13:30:44;;;;;;;16.70;6.15;;;17.70;99.90;;;;;;4975681;28;20061;-72
2023/10/13 13:33:12;;;;;;;14.30;6.68;;;17.70;99.90;;;;;;4951326;28;20042;-70
2023/10/13 13:35:43;;;;;;;15.15;6.10;;;17.70;99.90;;;;;;4952015;28;20054;-72
2023/10/13 13:38:10;;;;;;;18.60;6.72;;;17.70;99.90;;;;;;4970491;28;20118;-72
2023/10/13 13:40:38;;;;;;;17.48;6.60;;;17.70;99.90;;;;;;4986551;28;20070;-68
2023/10/13 13:43:03;;;;;;;15.63;6.97;;;17.80;99.90;;;;;;4972991;28;20134;-74
2023/10/13 13:45:29;;;;;;;14.85;6.47;;;17.80;99.90;;;;;;4952725;28;20141;-71
2023/10/13 13:47:55;;;;;;;16.92;6.88;;;17.90;99.90;;;;;;4970857;28;20038;-73
2023/10/13 13:50:38;;;;;;;20.20;6.80;;;17.90;99.90;;;;;;4966301;28;20026;-69
2023/10/13 13:53:08;;;;;;;14.25;6.55;;;17.80;99.90;;;;;;4949165;28;20087;-71
2023/10/13 13:55:35;;;;;;;14.90;7.15;;;17.70;99.90;;;;;;4970024;28;20062;-72
2023/10/13 13:58:00;;;;;;;17.65;6.97;;;17.50;99.90;;;;;;4970967;28;20433;-71
2023/10/13 14:00:38;;;;;;;19.45;6.97;;;17.40;99.90;;;;;;4967813;28;20062;-73
2023/10/13 14:03:12;;;;;;;17.30;7.55;;;17.30;99.90;;;;;;4971993;28;22769;-70
2023/10/13 14:05:45;;;;;;;17.50;8.25;;;17.20;99.90;;;;;;4953871;28;20471;-75
2023/10/13 14:08:14;;;;;;;16.98;7.05;;;17.20;99.90;;;;;;4957541;28;20039;-73
2023/10/13 14:16:29;;;;;;;17.95;7.70;;;17.10;99.90;;;;;;4913883;29;20242;-77
2023/10/13 14:18:54;;;;;;;16.95;8.35;;;17.10;99.90;;;;;;4914814;29;20138;-74
2023/10/13 14:21:24;;;;;;;20.00;7.82;;;17.20;99.90;;;;;;4940342;28;20466;-73
2023/10/13 14:23:53;;;;;;;22.73;7.57;;;17.10;99.90;;;;;;4956603;28;20154;-76
2023/10/13 14:26:21;;;;;;;17.60;7.75;;;17.10;99.90;;;;;;4972505;28;20047;-74
2023/10/13 14:29:21;;;;;;;18.20;7.80;;;17.10;99.90;;;;;;4956280;28;20082;-69
2023/10/13 14:31:41;;;;;;;21.17;8.32;;;17.10;99.90;;;;;;4973071;28;20497;-70
2023/10/13 14:34:07;;;;;;;24.20;8.93;;;17.10;99.90;;;;;;4989599;28;20046;-76
2023/10/13 14:36:35;;;;;;;20.92;8.32;;;17.10;99.90;;;;;;4989836;28;20046;-78
2023/10/13 14:39:02;;;;;;;23.77;8.32;;;17.10;99.90;;;;;;4973050;28;20140;-75
2023/10/13 14:41:29;;;;;;;19.75;8.15;;;17.10;99.90;;;;;;4972114;28;20048;-76
2023/10/13 14:44:04;;;;;;;22.35;8.88;;;17.10;99.90;;;;;;4972310;28;20042;-81
2023/10/13 14:46:31;;;;;;;21.73;9.02;;;17.20;99.90;;;;;;4974596;28;20049;-72
2023/10/13 14:48:56;;;;;;;18.70;8.70;;;17.10;99.90;;;;;;4971002;28;20038;-72
2023/10/13 14:51:25;;;;;;;18.48;7.72;;;17.10;99.90;;;;;;4970589;28;20133;-74
2023/10/13 14:53:55;;;;;;;18.38;8.27;;;17.00;99.90;;;;;;4985906;28;20035;-72
2023/10/13 14:56:25;;;;;;;;;;;17.20;99.90;;;;;;4966443;28;20061;-78
2023/10/13 14:58:52;;;;;;;22.05;8.45;;;17.20;99.90;;;;;;4973942;28;19922;-74
2023/10/13 15:01:19;;;;;;;15.43;7.28;;;17.20;99.90;;;;;;4958928;28;20042;-72
2023/10/13 15:03:50;;;;;;;19.38;7.43;;;17.10;99.90;;;;;;4991050;28;20101;-79
2023/10/13 15:06:29;;;;;;;22.13;7.43;;;17.00;99.90;;;;;;4987166;28;20134;-76
2023/10/13 15:08:56;;;;;;;18.63;8.43;;;17.10;99.90;;;;;;4990434;28;20038;-73
2023/10/13 15:11:26;;;;;;;27.15;7.95;;;17.10;99.90;;;;;;4954900;28;20434;-71
2023/10/13 15:13:56;;;;;;;23.42;8.32;;;17.10;99.90;;;;;;4971050;28;20054;-74
2023/10/13 15:16:24;;;;;;;25.60;9.57;;;16.70;99.90;;;;;;4953834;28;20129;-74
2023/10/13 15:18:51;;;;;;;24.35;10.18;;;17.40;99.90;;;;;;4970347;28;20510;-69
2023/10/13 15:21:34;;;;;;;23.17;9.68;;;16.90;99.90;;;;;;4975383;28;20050;-73
2023/10/13 15:24:04;;;;;;;20.33;9.07;;;16.90;99.90;;;;;;4938810;28;20386;-69
2023/10/13 15:26:37;;;;;;;22.00;10.35;;;17.30;99.90;;;;;;4975021;28;20082;-72
2023/10/13 15:29:08;;;;;;;22.45;9.52;;;16.70;99.90;;;;;;4972457;28;20042;-67
2023/10/13 15:34:12;;;;;;;29.02;10.65;;;16.90;99.90;;;;;;4972084;28;20125;-74
2023/10/13 15:36:39;;;;;;;23.60;10.48;;;16.80;99.90;;;;;;4972116;28;20447;-69
2023/10/13 15:39:08;;;;;;;26.15;11.10;;;16.90;99.90;;;;;;4972689;28;20042;-74
2023/10/13 15:41:33;;;;;;;23.88;10.40;;;17.20;99.90;;;;;;4973779;28;20180;-74
2023/10/13 15:43:59;;;;;;;24.70;11.48;;;16.70;99.90;;;;;;4956922;28;20062;-73
2023/10/13 15:46:25;;;;;;;27.13;10.55;;;16.40;99.90;;;;;;4955298;28;20140;-71
2023/10/13 15:48:51;;;;;;;22.85;10.40;;;17.20;99.90;;;;;;4969970;28;20093;-72
2023/10/13 15:51:17;;;;;;;29.70;10.85;;;16.80;99.90;;;;;;4953140;28;20026;-72
2023/10/13 15:53:44;;;;;;;27.77;11.63;;;16.70;99.90;;;;;;4973604;28;20038;-72
2023/10/13 15:56:14;;;;;;;24.65;10.98;;;17.30;99.90;;;;;;4972882;28;20053;-72
2023/10/13 15:58:46;;;;;;;29.48;11.35;;;16.40;99.90;;;;;;4972990;28;20466;-72
2023/10/13 16:01:15;;;;;;;26.48;11.25;;;17.10;99.90;;;;;;4971910;28;20050;-70
2023/10/13 16:03:43;;;;;;;25.13;10.93;;;16.50;99.90;;;;;;4954369;28;20051;-73
2023/10/13 16:06:10;;;;;;;21.38;11.18;;;17.20;99.90;;;;;;4967395;28;20566;-71
2023/10/13 16:08:42;;;;;;;26.00;11.07;;;16.80;99.90;;;;;;4970113;28;20038;-76